Washington, District of Columbia
Traffic Map
Current Weather Conditions
Washington, District of Columbia
Broken Clouds
Broken Clouds
83°
Feels Like: 89°
Wind Chill: 83° Ceiling: 25000
Heat Index: 89° Visibility: 10mi
Dew Point: 73° Wind: 8mph
Humidity: 72% Direction: 180° (S)
Pressure: 29.88in Gusts: 0mph
Raw Report DataKDCA 171252Z 18007KT 10SM FEW140 BKN250 28/23 A2988 RMK AO2 SLP118 T02830228
Traffic Incident Summary
Active as of:
Severity:
Category:
InformationThere was an issue retrieving the traffic information for this location. Please try a different location or try again shortly.
Advertisements